sensor_id;sensor_type;location;lat;lon;timestamp;P1;durP1;ratioP1;P2;durP2;ratioP2
49828;SDS011;35723;51.194;5.112;2022-07-23T00:00:14;19.08;;;8.40;;
49828;SDS011;35723;51.194;5.112;2022-07-23T00:02:40;18.70;;;8.30;;
49828;SDS011;35723;51.194;5.112;2022-07-23T00:05:06;17.83;;;8.05;;
49828;SDS011;35723;51.194;5.112;2022-07-23T00:07:32;18.25;;;7.85;;
49828;SDS011;35723;51.194;5.112;2022-07-23T00:09:58;19.80;;;7.95;;
49828;SDS011;35723;51.194;5.112;2022-07-23T00:12:23;17.02;;;7.43;;
49828;SDS011;35723;51.194;5.112;2022-07-23T00:14:49;21.92;;;7.90;;
49828;SDS011;35723;51.194;5.112;2022-07-23T00:17:15;19.80;;;8.07;;
49828;SDS011;35723;51.194;5.112;2022-07-23T00:19:40;16.90;;;7.90;;
49828;SDS011;35723;51.194;5.112;2022-07-23T00:22:06;16.58;;;7.30;;
49828;SDS011;35723;51.194;5.112;2022-07-23T00:24:31;15.27;;;7.13;;
49828;SDS011;35723;51.194;5.112;2022-07-23T00:26:57;19.33;;;7.78;;
49828;SDS011;35723;51.194;5.112;2022-07-23T00:29:23;18.23;;;7.65;;
49828;SDS011;35723;51.194;5.112;2022-07-23T00:31:48;17.13;;;7.57;;
49828;SDS011;35723;51.194;5.112;2022-07-23T00:34:14;18.17;;;8.35;;
49828;SDS011;35723;51.194;5.112;2022-07-23T00:36:39;18.42;;;8.20;;
49828;SDS011;35723;51.194;5.112;2022-07-23T00:39:06;19.00;;;8.18;;
49828;SDS011;35723;51.194;5.112;2022-07-23T00:41:32;17.48;;;8.07;;
49828;SDS011;35723;51.194;5.112;2022-07-23T00:44:19;15.90;;;7.63;;
49828;SDS011;35723;51.194;5.112;2022-07-23T00:46:46;18.80;;;8.93;;
49828;SDS011;35723;51.194;5.112;2022-07-23T00:49:13;21.42;;;8.10;;
49828;SDS011;35723;51.194;5.112;2022-07-23T00:51:39;17.40;;;8.32;;
49828;SDS011;35723;51.194;5.112;2022-07-23T00:54:05;19.27;;;8.18;;
49828;SDS011;35723;51.194;5.112;2022-07-23T00:56:31;17.50;;;8.43;;
49828;SDS011;35723;51.194;5.112;2022-07-23T00:58:58;15.85;;;7.25;;
49828;SDS011;35723;51.194;5.112;2022-07-23T01:01:26;17.52;;;7.75;;
49828;SDS011;35723;51.194;5.112;2022-07-23T01:03:51;19.50;;;8.13;;
49828;SDS011;35723;51.194;5.112;2022-07-23T01:06:17;22.65;;;7.85;;
49828;SDS011;35723;51.194;5.112;2022-07-23T01:08:42;16.50;;;7.25;;
49828;SDS011;35723;51.194;5.112;2022-07-23T01:11:08;15.93;;;7.97;;
49828;SDS011;35723;51.194;5.112;2022-07-23T01:13:34;20.35;;;8.00;;
49828;SDS011;35723;51.194;5.112;2022-07-23T01:16:00;17.98;;;7.95;;
49828;SDS011;35723;51.194;5.112;2022-07-23T01:18:25;17.23;;;7.35;;
49828;SDS011;35723;51.194;5.112;2022-07-23T01:20:51;17.92;;;7.53;;
49828;SDS011;35723;51.194;5.112;2022-07-23T01:23:17;18.90;;;7.45;;
49828;SDS011;35723;51.194;5.112;2022-07-23T01:25:49;15.65;;;7.20;;
49828;SDS011;35723;51.194;5.112;2022-07-23T01:28:17;19.60;;;7.25;;
49828;SDS011;35723;51.194;5.112;2022-07-23T01:30:43;17.30;;;7.20;;
49828;SDS011;35723;51.194;5.112;2022-07-23T01:33:09;16.48;;;7.22;;
49828;SDS011;35723;51.194;5.112;2022-07-23T01:35:34;17.23;;;7.25;;
49828;SDS011;35723;51.194;5.112;2022-07-23T01:38:00;17.10;;;7.20;;
49828;SDS011;35723;51.194;5.112;2022-07-23T01:40:26;18.60;;;7.55;;
49828;SDS011;35723;51.194;5.112;2022-07-23T01:42:51;19.25;;;7.88;;
49828;SDS011;35723;51.194;5.112;2022-07-23T01:45:17;19.75;;;7.43;;
49828;SDS011;35723;51.194;5.112;2022-07-23T01:47:43;17.23;;;7.88;;
49828;SDS011;35723;51.194;5.112;2022-07-23T01:50:09;15.57;;;7.82;;
49828;SDS011;35723;51.194;5.112;2022-07-23T01:52:34;16.60;;;8.00;;
49828;SDS011;35723;51.194;5.112;2022-07-23T01:55:00;17.75;;;7.45;;
49828;SDS011;35723;51.194;5.112;2022-07-23T01:57:26;20.90;;;8.05;;
49828;SDS011;35723;51.194;5.112;2022-07-23T01:59:51;20.55;;;7.90;;
49828;SDS011;35723;51.194;5.112;2022-07-23T02:02:17;17.38;;;7.65;;
49828;SDS011;35723;51.194;5.112;2022-07-23T02:04:42;19.95;;;8.00;;
49828;SDS011;35723;51.194;5.112;2022-07-23T02:07:08;19.75;;;8.30;;
49828;SDS011;35723;51.194;5.112;2022-07-23T02:09:34;19.27;;;8.23;;
49828;SDS011;35723;51.194;5.112;2022-07-23T02:12:00;17.95;;;8.25;;
49828;SDS011;35723;51.194;5.112;2022-07-23T02:14:26;20.00;;;8.70;;
49828;SDS011;35723;51.194;5.112;2022-07-23T02:16:51;20.92;;;8.50;;
49828;SDS011;35723;51.194;5.112;2022-07-23T02:19:17;17.23;;;8.32;;
49828;SDS011;35723;51.194;5.112;2022-07-23T02:21:43;20.67;;;8.63;;
49828;SDS011;35723;51.194;5.112;2022-07-23T02:24:09;18.42;;;8.73;;
49828;SDS011;35723;51.194;5.112;2022-07-23T02:26:34;16.30;;;8.75;;
49828;SDS011;35723;51.194;5.112;2022-07-23T02:29:03;17.17;;;8.70;;
49828;SDS011;35723;51.194;5.112;2022-07-23T02:31:30;21.50;;;8.73;;
49828;SDS011;35723;51.194;5.112;2022-07-23T02:33:56;19.33;;;9.15;;
49828;SDS011;35723;51.194;5.112;2022-07-23T02:36:22;20.65;;;9.05;;
49828;SDS011;35723;51.194;5.112;2022-07-23T02:38:47;21.40;;;10.13;;
49828;SDS011;35723;51.194;5.112;2022-07-23T02:41:13;19.05;;;8.88;;
49828;SDS011;35723;51.194;5.112;2022-07-23T02:43:39;18.65;;;9.15;;
49828;SDS011;35723;51.194;5.112;2022-07-23T02:46:04;23.33;;;9.52;;
49828;SDS011;35723;51.194;5.112;2022-07-23T02:48:30;20.35;;;9.13;;
49828;SDS011;35723;51.194;5.112;2022-07-23T02:50:56;19.00;;;8.98;;
49828;SDS011;35723;51.194;5.112;2022-07-23T02:53:22;18.50;;;8.70;;
49828;SDS011;35723;51.194;5.112;2022-07-23T02:55:48;19.20;;;8.70;;
49828;SDS011;35723;51.194;5.112;2022-07-23T02:58:14;16.90;;;8.68;;
49828;SDS011;35723;51.194;5.112;2022-07-23T03:00:39;18.92;;;8.30;;
49828;SDS011;35723;51.194;5.112;2022-07-23T03:03:05;17.77;;;8.50;;
49828;SDS011;35723;51.194;5.112;2022-07-23T03:05:32;26.35;;;9.55;;
49828;SDS011;35723;51.194;5.112;2022-07-23T03:07:58;18.23;;;8.57;;
49828;SDS011;35723;51.194;5.112;2022-07-23T03:10:24;19.38;;;8.80;;
49828;SDS011;35723;51.194;5.112;2022-07-23T03:12:50;18.75;;;8.25;;
49828;SDS011;35723;51.194;5.112;2022-07-23T03:15:16;16.55;;;8.52;;
49828;SDS011;35723;51.194;5.112;2022-07-23T03:17:41;19.05;;;9.10;;
49828;SDS011;35723;51.194;5.112;2022-07-23T03:20:07;17.73;;;8.70;;
49828;SDS011;35723;51.194;5.112;2022-07-23T03:22:33;18.58;;;8.95;;
49828;SDS011;35723;51.194;5.112;2022-07-23T03:24:59;18.60;;;8.75;;
49828;SDS011;35723;51.194;5.112;2022-07-23T03:27:26;16.90;;;8.55;;
49828;SDS011;35723;51.194;5.112;2022-07-23T03:29:53;19.02;;;8.57;;
49828;SDS011;35723;51.194;5.112;2022-07-23T03:32:20;18.65;;;8.65;;
49828;SDS011;35723;51.194;5.112;2022-07-23T03:34:46;18.25;;;8.25;;
49828;SDS011;35723;51.194;5.112;2022-07-23T03:37:12;18.02;;;8.50;;
49828;SDS011;35723;51.194;5.112;2022-07-23T03:39:38;17.05;;;8.15;;
49828;SDS011;35723;51.194;5.112;2022-07-23T03:42:04;16.00;;;7.82;;
49828;SDS011;35723;51.194;5.112;2022-07-23T03:44:29;17.52;;;8.35;;
49828;SDS011;35723;51.194;5.112;2022-07-23T03:46:55;17.35;;;7.55;;
49828;SDS011;35723;51.194;5.112;2022-07-23T03:49:21;16.77;;;8.50;;
49828;SDS011;35723;51.194;5.112;2022-07-23T03:51:46;19.60;;;9.32;;
49828;SDS011;35723;51.194;5.112;2022-07-23T03:54:12;20.48;;;8.85;;
49828;SDS011;35723;51.194;5.112;2022-07-23T03:56:38;16.50;;;8.38;;
49828;SDS011;35723;51.194;5.112;2022-07-23T03:59:04;15.38;;;8.15;;
49828;SDS011;35723;51.194;5.112;2022-07-23T04:01:29;15.95;;;8.18;;
49828;SDS011;35723;51.194;5.112;2022-07-23T04:03:55;18.20;;;8.45;;
49828;SDS011;35723;51.194;5.112;2022-07-23T04:06:20;18.55;;;8.10;;
49828;SDS011;35723;51.194;5.112;2022-07-23T04:08:46;17.60;;;7.88;;
49828;SDS011;35723;51.194;5.112;2022-07-23T04:11:12;18.33;;;8.32;;
49828;SDS011;35723;51.194;5.112;2022-07-23T04:13:37;16.92;;;8.05;;
49828;SDS011;35723;51.194;5.112;2022-07-23T04:16:03;21.27;;;8.50;;
49828;SDS011;35723;51.194;5.112;2022-07-23T04:18:29;17.13;;;8.13;;
49828;SDS011;35723;51.194;5.112;2022-07-23T04:20:55;17.65;;;8.48;;
49828;SDS011;35723;51.194;5.112;2022-07-23T04:23:20;19.02;;;8.68;;
49828;SDS011;35723;51.194;5.112;2022-07-23T04:25:46;16.85;;;8.00;;
49828;SDS011;35723;51.194;5.112;2022-07-23T04:28:12;17.42;;;7.68;;
49828;SDS011;35723;51.194;5.112;2022-07-23T04:30:38;18.73;;;7.88;;
49828;SDS011;35723;51.194;5.112;2022-07-23T04:33:03;19.23;;;8.20;;
49828;SDS011;35723;51.194;5.112;2022-07-23T04:35:35;18.05;;;8.75;;
49828;SDS011;35723;51.194;5.112;2022-07-23T04:38:01;19.30;;;8.10;;
49828;SDS011;35723;51.194;5.112;2022-07-23T04:40:27;16.73;;;7.68;;
49828;SDS011;35723;51.194;5.112;2022-07-23T04:42:53;16.02;;;7.75;;
49828;SDS011;35723;51.194;5.112;2022-07-23T04:45:19;17.90;;;7.70;;
49828;SDS011;35723;51.194;5.112;2022-07-23T04:47:44;16.80;;;8.40;;
49828;SDS011;35723;51.194;5.112;2022-07-23T04:50:10;17.15;;;8.82;;
49828;SDS011;35723;51.194;5.112;2022-07-23T04:52:36;20.17;;;9.38;;
49828;SDS011;35723;51.194;5.112;2022-07-23T04:55:02;21.35;;;9.82;;
49828;SDS011;35723;51.194;5.112;2022-07-23T04:57:28;20.52;;;10.10;;
49828;SDS011;35723;51.194;5.112;2022-07-23T04:59:53;18.60;;;10.15;;
49828;SDS011;35723;51.194;5.112;2022-07-23T05:02:19;23.48;;;11.38;;
49828;SDS011;35723;51.194;5.112;2022-07-23T05:04:44;21.77;;;11.30;;
49828;SDS011;35723;51.194;5.112;2022-07-23T05:07:10;21.80;;;11.10;;
49828;SDS011;35723;51.194;5.112;2022-07-23T05:09:36;21.10;;;10.93;;
49828;SDS011;35723;51.194;5.112;2022-07-23T05:12:01;24.00;;;12.00;;
49828;SDS011;35723;51.194;5.112;2022-07-23T05:14:27;22.90;;;12.07;;
49828;SDS011;35723;51.194;5.112;2022-07-23T05:16:54;23.60;;;12.80;;
49828;SDS011;35723;51.194;5.112;2022-07-23T05:19:20;23.42;;;12.40;;
49828;SDS011;35723;51.194;5.112;2022-07-23T05:21:45;23.35;;;13.43;;
49828;SDS011;35723;51.194;5.112;2022-07-23T05:24:11;23.80;;;13.93;;
49828;SDS011;35723;51.194;5.112;2022-07-23T05:26:37;23.25;;;13.63;;
49828;SDS011;35723;51.194;5.112;2022-07-23T05:29:02;26.27;;;14.20;;
49828;SDS011;35723;51.194;5.112;2022-07-23T05:31:28;26.52;;;15.05;;
49828;SDS011;35723;51.194;5.112;2022-07-23T05:33:54;23.58;;;14.23;;
49828;SDS011;35723;51.194;5.112;2022-07-23T05:36:19;24.40;;;14.88;;
49828;SDS011;35723;51.194;5.112;2022-07-23T05:38:45;24.20;;;15.02;;
49828;SDS011;35723;51.194;5.112;2022-07-23T05:41:10;26.13;;;15.32;;
49828;SDS011;35723;51.194;5.112;2022-07-23T05:43:36;25.50;;;14.80;;
49828;SDS011;35723;51.194;5.112;2022-07-23T05:46:02;24.98;;;14.95;;
49828;SDS011;35723;51.194;5.112;2022-07-23T05:48:27;27.30;;;15.75;;
49828;SDS011;35723;51.194;5.112;2022-07-23T05:50:53;32.00;;;17.88;;
49828;SDS011;35723;51.194;5.112;2022-07-23T05:53:19;26.65;;;16.65;;
49828;SDS011;35723;51.194;5.112;2022-07-23T05:55:44;29.88;;;16.65;;
49828;SDS011;35723;51.194;5.112;2022-07-23T05:58:10;28.58;;;16.42;;
49828;SDS011;35723;51.194;5.112;2022-07-23T06:00:35;27.50;;;16.23;;
49828;SDS011;35723;51.194;5.112;2022-07-23T06:03:01;30.88;;;16.65;;
49828;SDS011;35723;51.194;5.112;2022-07-23T06:05:27;30.02;;;17.33;;
49828;SDS011;35723;51.194;5.112;2022-07-23T06:07:52;26.75;;;16.52;;
49828;SDS011;35723;51.194;5.112;2022-07-23T06:10:19;29.33;;;16.52;;
49828;SDS011;35723;51.194;5.112;2022-07-23T06:12:45;30.85;;;17.27;;
49828;SDS011;35723;51.194;5.112;2022-07-23T06:15:11;28.45;;;16.75;;
49828;SDS011;35723;51.194;5.112;2022-07-23T06:17:36;25.08;;;15.30;;
49828;SDS011;35723;51.194;5.112;2022-07-23T06:20:04;23.42;;;13.48;;
49828;SDS011;35723;51.194;5.112;2022-07-23T06:22:34;22.52;;;13.48;;
49828;SDS011;35723;51.194;5.112;2022-07-23T06:25:00;22.88;;;12.57;;
49828;SDS011;35723;51.194;5.112;2022-07-23T06:27:26;22.65;;;11.35;;
49828;SDS011;35723;51.194;5.112;2022-07-23T06:29:51;20.50;;;10.85;;
49828;SDS011;35723;51.194;5.112;2022-07-23T06:32:17;20.13;;;10.85;;
49828;SDS011;35723;51.194;5.112;2022-07-23T06:34:43;20.00;;;10.52;;
49828;SDS011;35723;51.194;5.112;2022-07-23T06:37:08;19.55;;;10.70;;
49828;SDS011;35723;51.194;5.112;2022-07-23T06:39:34;27.02;;;10.50;;
49828;SDS011;35723;51.194;5.112;2022-07-23T06:42:00;20.20;;;10.88;;
49828;SDS011;35723;51.194;5.112;2022-07-23T06:44:26;22.48;;;10.63;;
49828;SDS011;35723;51.194;5.112;2022-07-23T06:46:52;20.50;;;10.30;;
49828;SDS011;35723;51.194;5.112;2022-07-23T06:49:17;22.42;;;10.85;;
49828;SDS011;35723;51.194;5.112;2022-07-23T06:51:43;19.38;;;9.73;;
49828;SDS011;35723;51.194;5.112;2022-07-23T06:54:09;21.23;;;10.45;;
49828;SDS011;35723;51.194;5.112;2022-07-23T06:56:35;21.35;;;9.50;;
49828;SDS011;35723;51.194;5.112;2022-07-23T06:59:00;21.55;;;9.23;;
49828;SDS011;35723;51.194;5.112;2022-07-23T07:01:26;20.10;;;9.75;;
49828;SDS011;35723;51.194;5.112;2022-07-23T07:03:52;21.63;;;9.15;;
49828;SDS011;35723;51.194;5.112;2022-07-23T07:06:17;22.98;;;9.57;;
49828;SDS011;35723;51.194;5.112;2022-07-23T07:08:43;20.30;;;9.10;;
49828;SDS011;35723;51.194;5.112;2022-07-23T07:11:09;19.92;;;8.85;;
49828;SDS011;35723;51.194;5.112;2022-07-23T07:13:35;17.52;;;7.80;;
49828;SDS011;35723;51.194;5.112;2022-07-23T07:16:02;17.80;;;8.48;;
49828;SDS011;35723;51.194;5.112;2022-07-23T07:18:27;19.58;;;8.40;;
49828;SDS011;35723;51.194;5.112;2022-07-23T07:20:53;20.20;;;7.60;;
49828;SDS011;35723;51.194;5.112;2022-07-23T07:23:19;14.45;;;6.80;;
49828;SDS011;35723;51.194;5.112;2022-07-23T07:25:45;13.15;;;6.55;;
49828;SDS011;35723;51.194;5.112;2022-07-23T07:28:11;16.58;;;6.90;;
49828;SDS011;35723;51.194;5.112;2022-07-23T07:30:37;16.50;;;6.72;;
49828;SDS011;35723;51.194;5.112;2022-07-23T07:33:03;15.23;;;6.80;;
49828;SDS011;35723;51.194;5.112;2022-07-23T07:35:29;15.05;;;6.82;;
49828;SDS011;35723;51.194;5.112;2022-07-23T07:37:56;14.02;;;5.57;;
49828;SDS011;35723;51.194;5.112;2022-07-23T07:40:21;17.00;;;6.35;;
49828;SDS011;35723;51.194;5.112;2022-07-23T07:42:48;14.00;;;6.47;;
49828;SDS011;35723;51.194;5.112;2022-07-23T07:45:15;14.00;;;6.20;;
49828;SDS011;35723;51.194;5.112;2022-07-23T07:47:40;14.75;;;6.22;;
49828;SDS011;35723;51.194;5.112;2022-07-23T07:50:07;12.45;;;6.15;;
49828;SDS011;35723;51.194;5.112;2022-07-23T07:52:33;18.42;;;6.10;;
49828;SDS011;35723;51.194;5.112;2022-07-23T07:55:01;14.05;;;6.50;;
49828;SDS011;35723;51.194;5.112;2022-07-23T07:57:28;14.38;;;5.93;;
49828;SDS011;35723;51.194;5.112;2022-07-23T07:59:54;13.07;;;5.65;;
49828;SDS011;35723;51.194;5.112;2022-07-23T08:02:19;15.35;;;6.00;;
49828;SDS011;35723;51.194;5.112;2022-07-23T08:04:45;14.25;;;5.68;;
49828;SDS011;35723;51.194;5.112;2022-07-23T08:07:11;16.88;;;5.72;;
49828;SDS011;35723;51.194;5.112;2022-07-23T08:09:36;15.48;;;5.85;;
49828;SDS011;35723;51.194;5.112;2022-07-23T08:12:02;14.93;;;5.80;;
49828;SDS011;35723;51.194;5.112;2022-07-23T08:14:28;12.57;;;5.22;;
49828;SDS011;35723;51.194;5.112;2022-07-23T08:16:53;15.27;;;5.30;;
49828;SDS011;35723;51.194;5.112;2022-07-23T08:19:19;13.63;;;5.55;;
49828;SDS011;35723;51.194;5.112;2022-07-23T08:21:44;17.02;;;6.20;;
49828;SDS011;35723;51.194;5.112;2022-07-23T08:24:10;13.88;;;5.95;;
49828;SDS011;35723;51.194;5.112;2022-07-23T08:26:36;14.75;;;5.82;;
49828;SDS011;35723;51.194;5.112;2022-07-23T08:29:01;13.65;;;6.00;;
49828;SDS011;35723;51.194;5.112;2022-07-23T08:31:27;16.27;;;6.50;;
49828;SDS011;35723;51.194;5.112;2022-07-23T08:33:52;19.10;;;6.57;;
49828;SDS011;35723;51.194;5.112;2022-07-23T08:36:19;14.50;;;6.28;;
49828;SDS011;35723;51.194;5.112;2022-07-23T08:38:44;13.52;;;6.82;;
49828;SDS011;35723;51.194;5.112;2022-07-23T08:41:10;17.00;;;7.13;;
49828;SDS011;35723;51.194;5.112;2022-07-23T08:43:36;17.92;;;6.75;;
49828;SDS011;35723;51.194;5.112;2022-07-23T08:46:02;15.20;;;7.22;;
49828;SDS011;35723;51.194;5.112;2022-07-23T08:48:29;14.73;;;6.70;;
49828;SDS011;35723;51.194;5.112;2022-07-23T08:50:58;15.32;;;6.80;;
49828;SDS011;35723;51.194;5.112;2022-07-23T08:53:25;14.73;;;5.97;;
49828;SDS011;35723;51.194;5.112;2022-07-23T08:55:53;16.38;;;6.50;;
49828;SDS011;35723;51.194;5.112;2022-07-23T08:58:21;14.05;;;5.95;;
49828;SDS011;35723;51.194;5.112;2022-07-23T09:00:47;15.00;;;5.78;;
49828;SDS011;35723;51.194;5.112;2022-07-23T09:03:21;12.52;;;5.55;;
49828;SDS011;35723;51.194;5.112;2022-07-23T09:05:49;12.57;;;5.22;;
49828;SDS011;35723;51.194;5.112;2022-07-23T09:08:17;12.70;;;5.07;;
49828;SDS011;35723;51.194;5.112;2022-07-23T09:16:03;16.70;;;5.80;;
49828;SDS011;35723;51.194;5.112;2022-07-23T09:18:42;17.25;;;4.80;;
49828;SDS011;35723;51.194;5.112;2022-07-23T09:24:06;10.25;;;4.65;;
49828;SDS011;35723;51.194;5.112;2022-07-23T09:29:10;12.88;;;5.20;;
49828;SDS011;35723;51.194;5.112;2022-07-23T09:36:46;11.32;;;4.70;;
49828;SDS011;35723;51.194;5.112;2022-07-23T09:39:13;9.07;;;4.00;;
49828;SDS011;35723;51.194;5.112;2022-07-23T09:41:43;9.57;;;4.13;;
49828;SDS011;35723;51.194;5.112;2022-07-23T09:46:45;10.50;;;4.32;;
49828;SDS011;35723;51.194;5.112;2022-07-23T09:51:57;12.93;;;4.25;;
49828;SDS011;35723;51.194;5.112;2022-07-23T09:54:33;9.45;;;3.65;;
49828;SDS011;35723;51.194;5.112;2022-07-23T09:57:17;11.18;;;4.07;;
49828;SDS011;35723;51.194;5.112;2022-07-23T09:59:45;11.18;;;3.80;;
49828;SDS011;35723;51.194;5.112;2022-07-23T10:02:12;10.60;;;3.88;;
49828;SDS011;35723;51.194;5.112;2022-07-23T10:04:39;10.85;;;3.85;;
49828;SDS011;35723;51.194;5.112;2022-07-23T10:07:07;8.40;;;4.10;;
49828;SDS011;35723;51.194;5.112;2022-07-23T10:09:37;8.52;;;3.60;;
49828;SDS011;35723;51.194;5.112;2022-07-23T10:12:05;9.32;;;3.63;;
49828;SDS011;35723;51.194;5.112;2022-07-23T10:14:38;8.88;;;3.35;;
49828;SDS011;35723;51.194;5.112;2022-07-23T10:17:05;9.55;;;3.67;;
49828;SDS011;35723;51.194;5.112;2022-07-23T10:19:31;6.50;;;3.50;;
49828;SDS011;35723;51.194;5.112;2022-07-23T10:22:01;7.45;;;3.42;;
49828;SDS011;35723;51.194;5.112;2022-07-23T10:30:05;10.43;;;3.15;;
49828;SDS011;35723;51.194;5.112;2022-07-23T10:32:44;8.50;;;2.70;;
49828;SDS011;35723;51.194;5.112;2022-07-23T10:38:02;8.35;;;3.10;;
49828;SDS011;35723;51.194;5.112;2022-07-23T10:40:55;6.85;;;3.20;;
49828;SDS011;35723;51.194;5.112;2022-07-23T10:43:26;8.60;;;2.80;;
49828;SDS011;35723;51.194;5.112;2022-07-23T10:45:53;6.18;;;2.95;;
49828;SDS011;35723;51.194;5.112;2022-07-23T10:48:20;5.65;;;2.72;;
49828;SDS011;35723;51.194;5.112;2022-07-23T10:56:14;6.72;;;2.95;;
49828;SDS011;35723;51.194;5.112;2022-07-23T10:58:50;6.95;;;2.70;;
49828;SDS011;35723;51.194;5.112;2022-07-23T11:01:35;6.05;;;2.50;;
49828;SDS011;35723;51.194;5.112;2022-07-23T11:04:02;3.60;;;2.33;;
49828;SDS011;35723;51.194;5.112;2022-07-23T11:07:15;3.58;;;2.20;;
49828;SDS011;35723;51.194;5.112;2022-07-23T11:09:23;5.40;;;2.30;;
49828;SDS011;35723;51.194;5.112;2022-07-23T11:17:31;3.50;;;2.40;;
49828;SDS011;35723;51.194;5.112;2022-07-23T11:25:12;6.45;;;2.65;;
49828;SDS011;35723;51.194;5.112;2022-07-23T11:27:47;6.07;;;2.40;;
49828;SDS011;35723;51.194;5.112;2022-07-23T11:33:37;3.70;;;2.10;;
49828;SDS011;35723;51.194;5.112;2022-07-23T11:35:44;3.90;;;2.40;;
49828;SDS011;35723;51.194;5.112;2022-07-23T11:38:18;5.13;;;2.33;;
49828;SDS011;35723;51.194;5.112;2022-07-23T11:40:51;4.68;;;2.40;;
49828;SDS011;35723;51.194;5.112;2022-07-23T11:43:19;4.63;;;2.20;;
49828;SDS011;35723;51.194;5.112;2022-07-23T11:45:46;5.38;;;2.50;;
49828;SDS011;35723;51.194;5.112;2022-07-23T11:48:20;8.73;;;3.30;;
49828;SDS011;35723;51.194;5.112;2022-07-23T11:50:50;6.40;;;3.22;;
49828;SDS011;35723;51.194;5.112;2022-07-23T11:53:23;8.52;;;2.92;;
49828;SDS011;35723;51.194;5.112;2022-07-23T11:55:50;9.20;;;3.40;;
49828;SDS011;35723;51.194;5.112;2022-07-23T11:58:17;5.60;;;2.97;;
49828;SDS011;35723;51.194;5.112;2022-07-23T12:00:43;5.85;;;2.80;;
49828;SDS011;35723;51.194;5.112;2022-07-23T12:03:08;6.25;;;3.00;;
49828;SDS011;35723;51.194;5.112;2022-07-23T12:05:35;4.57;;;2.97;;
49828;SDS011;35723;51.194;5.112;2022-07-23T12:08:03;5.95;;;2.53;;
49828;SDS011;35723;51.194;5.112;2022-07-23T12:10:34;8.20;;;3.20;;
49828;SDS011;35723;51.194;5.112;2022-07-23T12:13:03;6.53;;;2.70;;
49828;SDS011;35723;51.194;5.112;2022-07-23T12:15:42;6.55;;;3.03;;
49828;SDS011;35723;51.194;5.112;2022-07-23T12:18:17;4.43;;;2.72;;
49828;SDS011;35723;51.194;5.112;2022-07-23T12:20:48;7.10;;;3.10;;
49828;SDS011;35723;51.194;5.112;2022-07-23T12:23:16;6.68;;;2.90;;
49828;SDS011;35723;51.194;5.112;2022-07-23T12:25:44;4.68;;;2.67;;
49828;SDS011;35723;51.194;5.112;2022-07-23T12:28:11;7.68;;;2.85;;
49828;SDS011;35723;51.194;5.112;2022-07-23T12:33:06;4.43;;;2.72;;
49828;SDS011;35723;51.194;5.112;2022-07-23T12:35:42;5.68;;;2.80;;
49828;SDS011;35723;51.194;5.112;2022-07-23T12:38:14;8.27;;;2.80;;
49828;SDS011;35723;51.194;5.112;2022-07-23T12:40:48;6.05;;;3.10;;
49828;SDS011;35723;51.194;5.112;2022-07-23T12:43:38;8.23;;;2.88;;
49828;SDS011;35723;51.194;5.112;2022-07-23T12:46:06;6.20;;;2.83;;
49828;SDS011;35723;51.194;5.112;2022-07-23T12:48:35;4.88;;;3.17;;
49828;SDS011;35723;51.194;5.112;2022-07-23T12:53:45;5.57;;;3.17;;
49828;SDS011;35723;51.194;5.112;2022-07-23T12:58:53;6.35;;;2.80;;
49828;SDS011;35723;51.194;5.112;2022-07-23T13:03:58;4.95;;;2.92;;
49828;SDS011;35723;51.194;5.112;2022-07-23T13:06:39;7.43;;;3.00;;
49828;SDS011;35723;51.194;5.112;2022-07-23T13:09:16;6.22;;;3.05;;
49828;SDS011;35723;51.194;5.112;2022-07-23T13:11:44;8.20;;;3.00;;
49828;SDS011;35723;51.194;5.112;2022-07-23T13:14:10;7.20;;;2.83;;
49828;SDS011;35723;51.194;5.112;2022-07-23T13:16:37;5.75;;;2.85;;
49828;SDS011;35723;51.194;5.112;2022-07-23T13:19:04;4.57;;;2.83;;
49828;SDS011;35723;51.194;5.112;2022-07-23T13:21:30;12.57;;;3.00;;
49828;SDS011;35723;51.194;5.112;2022-07-23T13:23:56;6.65;;;2.85;;
49828;SDS011;35723;51.194;5.112;2022-07-23T13:26:22;5.97;;;2.60;;
49828;SDS011;35723;51.194;5.112;2022-07-23T13:28:48;7.80;;;2.90;;
49828;SDS011;35723;51.194;5.112;2022-07-23T13:31:15;5.20;;;2.60;;
49828;SDS011;35723;51.194;5.112;2022-07-23T13:33:41;5.30;;;2.75;;
49828;SDS011;35723;51.194;5.112;2022-07-23T13:36:07;5.45;;;3.08;;
49828;SDS011;35723;51.194;5.112;2022-07-23T13:38:33;6.05;;;2.65;;
49828;SDS011;35723;51.194;5.112;2022-07-23T13:40:59;7.25;;;2.70;;
49828;SDS011;35723;51.194;5.112;2022-07-23T13:43:25;5.32;;;2.60;;
49828;SDS011;35723;51.194;5.112;2022-07-23T13:45:52;5.53;;;2.67;;
49828;SDS011;35723;51.194;5.112;2022-07-23T13:48:18;6.72;;;2.70;;
49828;SDS011;35723;51.194;5.112;2022-07-23T13:50:45;4.05;;;2.30;;
49828;SDS011;35723;51.194;5.112;2022-07-23T13:53:18;5.78;;;2.30;;
49828;SDS011;35723;51.194;5.112;2022-07-23T13:55:46;7.88;;;2.97;;
49828;SDS011;35723;51.194;5.112;2022-07-23T13:58:13;6.88;;;2.90;;
49828;SDS011;35723;51.194;5.112;2022-07-23T14:00:39;8.65;;;3.28;;
49828;SDS011;35723;51.194;5.112;2022-07-23T14:03:07;6.20;;;2.50;;
49828;SDS011;35723;51.194;5.112;2022-07-23T14:05:33;8.38;;;3.20;;
49828;SDS011;35723;51.194;5.112;2022-07-23T14:07:59;6.80;;;2.90;;
49828;SDS011;35723;51.194;5.112;2022-07-23T14:10:25;4.90;;;2.80;;
49828;SDS011;35723;51.194;5.112;2022-07-23T14:12:51;8.05;;;3.03;;
49828;SDS011;35723;51.194;5.112;2022-07-23T14:15:24;5.10;;;2.92;;
49828;SDS011;35723;51.194;5.112;2022-07-23T14:17:52;5.30;;;2.92;;
49828;SDS011;35723;51.194;5.112;2022-07-23T14:20:18;6.90;;;3.00;;
49828;SDS011;35723;51.194;5.112;2022-07-23T14:22:44;7.63;;;2.80;;
49828;SDS011;35723;51.194;5.112;2022-07-23T14:25:10;6.60;;;2.90;;
49828;SDS011;35723;51.194;5.112;2022-07-23T14:27:36;8.20;;;3.00;;
49828;SDS011;35723;51.194;5.112;2022-07-23T14:30:03;4.40;;;2.90;;
49828;SDS011;35723;51.194;5.112;2022-07-23T14:32:30;9.50;;;3.08;;
49828;SDS011;35723;51.194;5.112;2022-07-23T14:34:56;21.33;;;4.20;;
49828;SDS011;35723;51.194;5.112;2022-07-23T14:37:22;10.80;;;3.28;;
49828;SDS011;35723;51.194;5.112;2022-07-23T14:39:47;10.85;;;3.60;;
49828;SDS011;35723;51.194;5.112;2022-07-23T14:42:13;8.68;;;3.30;;
49828;SDS011;35723;51.194;5.112;2022-07-23T14:44:39;13.95;;;3.45;;
49828;SDS011;35723;51.194;5.112;2022-07-23T14:47:07;5.93;;;3.03;;
49828;SDS011;35723;51.194;5.112;2022-07-23T14:49:32;9.52;;;3.40;;
49828;SDS011;35723;51.194;5.112;2022-07-23T14:51:59;10.70;;;3.47;;
49828;SDS011;35723;51.194;5.112;2022-07-23T14:54:25;7.88;;;3.65;;
49828;SDS011;35723;51.194;5.112;2022-07-23T14:56:52;12.77;;;3.20;;
49828;SDS011;35723;51.194;5.112;2022-07-23T14:59:22;6.90;;;3.42;;
49828;SDS011;35723;51.194;5.112;2022-07-23T15:01:48;9.98;;;3.70;;
49828;SDS011;35723;51.194;5.112;2022-07-23T15:04:14;7.72;;;3.70;;
49828;SDS011;35723;51.194;5.112;2022-07-23T15:06:40;7.28;;;2.90;;
49828;SDS011;35723;51.194;5.112;2022-07-23T15:09:06;8.52;;;3.30;;
49828;SDS011;35723;51.194;5.112;2022-07-23T15:11:32;7.55;;;3.63;;
49828;SDS011;35723;51.194;5.112;2022-07-23T15:14:03;8.43;;;2.95;;
49828;SDS011;35723;51.194;5.112;2022-07-23T15:16:29;5.97;;;3.20;;
49828;SDS011;35723;51.194;5.112;2022-07-23T15:18:55;10.50;;;3.35;;
49828;SDS011;35723;51.194;5.112;2022-07-23T15:21:20;6.68;;;3.20;;
49828;SDS011;35723;51.194;5.112;2022-07-23T15:23:47;7.20;;;3.13;;
49828;SDS011;35723;51.194;5.112;2022-07-23T15:26:12;8.18;;;3.30;;
49828;SDS011;35723;51.194;5.112;2022-07-23T15:28:39;7.15;;;3.63;;
49828;SDS011;35723;51.194;5.112;2022-07-23T15:31:06;9.90;;;3.70;;
49828;SDS011;35723;51.194;5.112;2022-07-23T15:33:32;11.27;;;3.75;;